This is the latest recevied weather packets stored in our database for station/object KE4EST. If no packets are shown the sender has not sent any weather packets the latest 1 day(s).
| Time | Temp. | Humidity | Pressure | Rain* | Wind** | Luminosity | Snow |
|---|---|---|---|---|---|---|---|
| 1778087791 | 18.89° C | 97% | 1015.2 hPa | 0 mm | - | 147 W/m² | - |
| 1778086277 | 17.78° C | 99% | 1015 hPa | 0 mm | - | 224 W/m² | - |
| 1778084451 | 17.22° C | 99% | 1014.6 hPa | 0 mm | - | 137 W/m² | - |
| 1778083840 | 17.22° C | 99% | 1014.9 hPa | 0 mm | - | 165 W/m² | - |
| 1778083538 | 17.22° C | 99% | 1015.3 hPa | 0 mm | - | 201 W/m² | - |
| 1778081830 | 16.11° C | 99% | 1017.1 hPa | 3.05 mm | - | 16 W/m² | - |
| 1778081224 | 16.11° C | 99% | 1016.3 hPa | 28.7 mm | - | 85 W/m² | - |
| 1778080621 | 16.11° C | 99% | 1017.6 hPa | 4.32 mm | - | 19 W/m² | - |
| 1778079407 | 15.56° C | 99% | 1016.7 hPa | 30.73 mm | - | 20 W/m² | - |
| 1778079104 | 15.56° C | 99% | 1016.5 hPa | 16.76 mm | - | 30 W/m² | - |
| 1778078802 | 15.56° C | 99% | 1016.6 hPa | 3.05 mm | - | 9 W/m² | - |
| 1778078498 | 15.56° C | 99% | 1016.3 hPa | 3.05 mm | - | 18 W/m² | - |
| 1778078196 | 15.56° C | 99% | 1016 hPa | 22.86 mm | - | 18 W/m² | - |
| 1778077592 | 15.56° C | 99% | 1016.1 hPa | 13.21 mm | - | 19 W/m² | - |
| 1778076987 | 16.11° C | 98% | 1015.4 hPa | 3.05 mm | - | 4 W/m² | - |
| 1778074865 | 16.11° C | 97% | 1014.6 hPa | 1.78 mm | - | 17 W/m² | - |
| 1778073351 | 16.11° C | 97% | 1014.5 hPa | 0 mm | - | 25 W/m² | - |
| 1778073047 | 16.11° C | 96% | 1014.9 hPa | 0 mm | - | 18 W/m² | - |
| 1778072744 | 16.11° C | 96% | 1014.7 hPa | 0 mm | - | 36 W/m² | - |
| 1778072140 | 16.11° C | 97% | 1014.4 hPa | 0 mm | - | 28 W/m² | - |
| 1778070930 | 16.11° C | 97% | 1014.8 hPa | 0 mm | - | 7 W/m² | - |
| 1778070023 | 16.11° C | 97% | 1014.6 hPa | 0 mm | - | 11 W/m² | - |
| 1778069720 | 16.11° C | 97% | 1014.5 hPa | 0 mm | - | 11 W/m² | - |
| 1778069416 | 16.11° C | 97% | 1014.2 hPa | 0 mm | - | 12 W/m² | - |
| 1778068509 | 16.11° C | 95% | 1014.6 hPa | 1.27 mm | - | 9 W/m² | - |
* Rain latest hour (hover to see other rain measurements)
** Current wind speed in m/s (hover to see current wind gust speed)